sensor_id;sensor_type;location;lat;lon;timestamp;temperature;humidity
17200;DHT22;8716;52.268;20.968;2023-04-01T00:01:41;10.90;99.90
17200;DHT22;8716;52.268;20.968;2023-04-01T00:04:09;10.90;99.90
17200;DHT22;8716;52.268;20.968;2023-04-01T00:06:37;10.90;99.90
17200;DHT22;8716;52.268;20.968;2023-04-01T00:09:06;10.90;99.90
17200;DHT22;8716;52.268;20.968;2023-04-01T00:11:36;10.90;99.90
17200;DHT22;8716;52.268;20.968;2023-04-01T00:14:05;10.90;99.90
17200;DHT22;8716;52.268;20.968;2023-04-01T00:16:34;10.90;99.90
17200;DHT22;8716;52.268;20.968;2023-04-01T00:19:03;11.00;99.90
17200;DHT22;8716;52.268;20.968;2023-04-01T00:21:32;11.00;99.90
17200;DHT22;8716;52.268;20.968;2023-04-01T00:24:03;11.00;99.90
17200;DHT22;8716;52.268;20.968;2023-04-01T00:26:32;11.00;99.90
17200;DHT22;8716;52.268;20.968;2023-04-01T00:29:00;11.00;99.90
17200;DHT22;8716;52.268;20.968;2023-04-01T00:31:28;11.00;99.90
17200;DHT22;8716;52.268;20.968;2023-04-01T00:33:57;11.00;99.90
17200;DHT22;8716;52.268;20.968;2023-04-01T00:36:27;11.00;99.90
17200;DHT22;8716;52.268;20.968;2023-04-01T00:38:56;11.00;99.90
17200;DHT22;8716;52.268;20.968;2023-04-01T00:41:25;11.00;99.90
17200;DHT22;8716;52.268;20.968;2023-04-01T00:44:16;11.00;99.90
17200;DHT22;8716;52.268;20.968;2023-04-01T00:46:45;11.00;99.90
17200;DHT22;8716;52.268;20.968;2023-04-01T00:49:15;11.00;99.90
17200;DHT22;8716;52.268;20.968;2023-04-01T00:51:49;11.00;99.90
17200;DHT22;8716;52.268;20.968;2023-04-01T00:54:19;10.90;99.90
17200;DHT22;8716;52.268;20.968;2023-04-01T00:56:51;10.90;99.90
17200;DHT22;8716;52.268;20.968;2023-04-01T00:59:25;10.90;99.90
17200;DHT22;8716;52.268;20.968;2023-04-01T01:01:54;11.00;99.90
17200;DHT22;8716;52.268;20.968;2023-04-01T01:04:24;10.90;99.90
17200;DHT22;8716;52.268;20.968;2023-04-01T01:07:04;10.90;99.90
17200;DHT22;8716;52.268;20.968;2023-04-01T01:09:43;10.90;99.90
17200;DHT22;8716;52.268;20.968;2023-04-01T01:12:17;10.90;99.90
17200;DHT22;8716;52.268;20.968;2023-04-01T01:14:55;10.90;99.90
17200;DHT22;8716;52.268;20.968;2023-04-01T01:17:32;10.90;99.90
17200;DHT22;8716;52.268;20.968;2023-04-01T01:23:34;10.90;99.90
17200;DHT22;8716;52.268;20.968;2023-04-01T01:26:29;10.80;99.90
17200;DHT22;8716;52.268;20.968;2023-04-01T01:29:08;10.90;99.90
17200;DHT22;8716;52.268;20.968;2023-04-01T01:31:45;10.90;99.90
17200;DHT22;8716;52.268;20.968;2023-04-01T01:34:21;10.90;99.90
17200;DHT22;8716;52.268;20.968;2023-04-01T01:36:56;10.90;99.90
17200;DHT22;8716;52.268;20.968;2023-04-01T01:39:30;10.80;99.90
17200;DHT22;8716;52.268;20.968;2023-04-01T01:42:02;10.80;99.90
17200;DHT22;8716;52.268;20.968;2023-04-01T01:44:33;10.80;99.90
17200;DHT22;8716;52.268;20.968;2023-04-01T01:47:03;10.90;99.90
17200;DHT22;8716;52.268;20.968;2023-04-01T01:49:34;10.90;99.90
17200;DHT22;8716;52.268;20.968;2023-04-01T01:52:04;10.90;99.90
17200;DHT22;8716;52.268;20.968;2023-04-01T01:54:33;10.80;99.90
17200;DHT22;8716;52.268;20.968;2023-04-01T01:57:05;10.90;99.90
17200;DHT22;8716;52.268;20.968;2023-04-01T01:59:38;10.90;99.90
17200;DHT22;8716;52.268;20.968;2023-04-01T02:02:09;10.90;99.90
17200;DHT22;8716;52.268;20.968;2023-04-01T02:04:40;10.90;99.90
17200;DHT22;8716;52.268;20.968;2023-04-01T02:07:15;10.90;99.90
17200;DHT22;8716;52.268;20.968;2023-04-01T02:09:45;10.90;99.90
17200;DHT22;8716;52.268;20.968;2023-04-01T02:12:15;10.90;99.90
17200;DHT22;8716;52.268;20.968;2023-04-01T02:14:47;10.90;99.90
17200;DHT22;8716;52.268;20.968;2023-04-01T02:17:19;10.90;99.90
17200;DHT22;8716;52.268;20.968;2023-04-01T02:19:51;10.90;99.90
17200;DHT22;8716;52.268;20.968;2023-04-01T02:22:27;10.90;99.90
17200;DHT22;8716;52.268;20.968;2023-04-01T02:25:00;10.90;99.90
17200;DHT22;8716;52.268;20.968;2023-04-01T02:27:32;10.90;99.90
17200;DHT22;8716;52.268;20.968;2023-04-01T02:30:01;10.90;99.90
17200;DHT22;8716;52.268;20.968;2023-04-01T02:32:31;11.00;99.90
17200;DHT22;8716;52.268;20.968;2023-04-01T02:35:01;10.90;99.90
17200;DHT22;8716;52.268;20.968;2023-04-01T02:37:34;11.00;99.90
17200;DHT22;8716;52.268;20.968;2023-04-01T02:40:07;11.00;99.90
17200;DHT22;8716;52.268;20.968;2023-04-01T02:42:36;11.00;99.90
17200;DHT22;8716;52.268;20.968;2023-04-01T02:45:06;11.00;99.90
17200;DHT22;8716;52.268;20.968;2023-04-01T02:47:35;11.00;99.90
17200;DHT22;8716;52.268;20.968;2023-04-01T02:50:04;11.00;99.90
17200;DHT22;8716;52.268;20.968;2023-04-01T02:52:34;11.00;99.90
17200;DHT22;8716;52.268;20.968;2023-04-01T02:55:04;11.00;99.90
17200;DHT22;8716;52.268;20.968;2023-04-01T02:57:35;11.00;99.90
17200;DHT22;8716;52.268;20.968;2023-04-01T03:00:04;11.00;99.90
17200;DHT22;8716;52.268;20.968;2023-04-01T03:02:38;10.90;99.90
17200;DHT22;8716;52.268;20.968;2023-04-01T03:05:07;10.90;99.90
17200;DHT22;8716;52.268;20.968;2023-04-01T03:07:37;10.90;99.90
17200;DHT22;8716;52.268;20.968;2023-04-01T03:10:06;10.90;99.90
17200;DHT22;8716;52.268;20.968;2023-04-01T03:12:35;10.80;99.90
17200;DHT22;8716;52.268;20.968;2023-04-01T03:15:04;10.80;99.90
17200;DHT22;8716;52.268;20.968;2023-04-01T03:17:38;10.80;99.90
17200;DHT22;8716;52.268;20.968;2023-04-01T03:20:08;10.90;99.90
17200;DHT22;8716;52.268;20.968;2023-04-01T03:22:39;10.80;99.90
17200;DHT22;8716;52.268;20.968;2023-04-01T03:25:10;10.80;99.90
17200;DHT22;8716;52.268;20.968;2023-04-01T03:27:38;10.80;99.90
17200;DHT22;8716;52.268;20.968;2023-04-01T03:30:09;10.80;99.90
17200;DHT22;8716;52.268;20.968;2023-04-01T03:32:46;10.80;99.90
17200;DHT22;8716;52.268;20.968;2023-04-01T03:35:14;10.80;99.90
17200;DHT22;8716;52.268;20.968;2023-04-01T03:37:46;10.80;99.90
17200;DHT22;8716;52.268;20.968;2023-04-01T03:40:14;10.80;99.90
17200;DHT22;8716;52.268;20.968;2023-04-01T03:42:43;10.80;99.90
17200;DHT22;8716;52.268;20.968;2023-04-01T03:45:11;10.80;99.90
17200;DHT22;8716;52.268;20.968;2023-04-01T03:47:40;10.70;99.90
17200;DHT22;8716;52.268;20.968;2023-04-01T03:50:09;10.70;99.90
17200;DHT22;8716;52.268;20.968;2023-04-01T03:52:38;10.80;99.90
17200;DHT22;8716;52.268;20.968;2023-04-01T03:55:08;10.70;99.90
17200;DHT22;8716;52.268;20.968;2023-04-01T03:57:38;10.80;99.90
17200;DHT22;8716;52.268;20.968;2023-04-01T04:00:15;10.70;99.90
17200;DHT22;8716;52.268;20.968;2023-04-01T04:02:47;10.70;99.90
17200;DHT22;8716;52.268;20.968;2023-04-01T04:05:20;10.80;99.90
17200;DHT22;8716;52.268;20.968;2023-04-01T04:07:48;10.80;99.90
17200;DHT22;8716;52.268;20.968;2023-04-01T04:10:19;10.70;99.90
17200;DHT22;8716;52.268;20.968;2023-04-01T04:12:50;10.70;99.90
17200;DHT22;8716;52.268;20.968;2023-04-01T04:15:21;10.70;99.90
17200;DHT22;8716;52.268;20.968;2023-04-01T04:17:49;10.70;99.90
17200;DHT22;8716;52.268;20.968;2023-04-01T04:20:17;10.70;99.90
17200;DHT22;8716;52.268;20.968;2023-04-01T04:22:46;10.70;99.90
17200;DHT22;8716;52.268;20.968;2023-04-01T04:25:14;10.70;99.90
17200;DHT22;8716;52.268;20.968;2023-04-01T04:27:45;10.70;99.90
17200;DHT22;8716;52.268;20.968;2023-04-01T04:30:15;10.70;99.90
17200;DHT22;8716;52.268;20.968;2023-04-01T04:32:43;10.70;99.90
17200;DHT22;8716;52.268;20.968;2023-04-01T04:35:12;10.70;99.90
17200;DHT22;8716;52.268;20.968;2023-04-01T04:37:40;10.70;99.90
17200;DHT22;8716;52.268;20.968;2023-04-01T04:40:10;10.70;99.90
17200;DHT22;8716;52.268;20.968;2023-04-01T04:42:38;10.70;99.90
17200;DHT22;8716;52.268;20.968;2023-04-01T04:45:11;10.70;99.90
17200;DHT22;8716;52.268;20.968;2023-04-01T04:47:48;10.70;99.90
17200;DHT22;8716;52.268;20.968;2023-04-01T04:50:17;10.60;99.90
17200;DHT22;8716;52.268;20.968;2023-04-01T04:52:45;10.70;99.90
17200;DHT22;8716;52.268;20.968;2023-04-01T04:55:14;10.70;99.90
17200;DHT22;8716;52.268;20.968;2023-04-01T04:57:46;10.70;99.90
17200;DHT22;8716;52.268;20.968;2023-04-01T05:00:17;10.70;99.90
17200;DHT22;8716;52.268;20.968;2023-04-01T05:02:51;10.70;99.90
17200;DHT22;8716;52.268;20.968;2023-04-01T05:05:20;10.80;99.90
17200;DHT22;8716;52.268;20.968;2023-04-01T05:07:48;10.90;99.90
17200;DHT22;8716;52.268;20.968;2023-04-01T05:10:17;10.90;99.90
17200;DHT22;8716;52.268;20.968;2023-04-01T05:12:45;10.80;99.90
17200;DHT22;8716;52.268;20.968;2023-04-01T05:15:18;10.90;99.90
17200;DHT22;8716;52.268;20.968;2023-04-01T05:17:47;10.90;99.90
17200;DHT22;8716;52.268;20.968;2023-04-01T05:20:18;10.80;99.90
17200;DHT22;8716;52.268;20.968;2023-04-01T05:22:46;10.80;99.90
17200;DHT22;8716;52.268;20.968;2023-04-01T05:25:15;10.90;99.90
17200;DHT22;8716;52.268;20.968;2023-04-01T05:27:43;10.80;99.90
17200;DHT22;8716;52.268;20.968;2023-04-01T05:30:12;10.80;99.90
17200;DHT22;8716;52.268;20.968;2023-04-01T05:33:01;10.80;99.90
17200;DHT22;8716;52.268;20.968;2023-04-01T05:35:29;10.90;99.90
17200;DHT22;8716;52.268;20.968;2023-04-01T05:37:58;11.00;99.90
17200;DHT22;8716;52.268;20.968;2023-04-01T05:40:27;11.00;99.90
17200;DHT22;8716;52.268;20.968;2023-04-01T05:42:56;11.00;99.90
17200;DHT22;8716;52.268;20.968;2023-04-01T05:45:24;11.00;99.90
17200;DHT22;8716;52.268;20.968;2023-04-01T05:48:00;11.10;99.90
17200;DHT22;8716;52.268;20.968;2023-04-01T05:50:34;11.20;99.90
17200;DHT22;8716;52.268;20.968;2023-04-01T05:53:04;11.20;99.90
17200;DHT22;8716;52.268;20.968;2023-04-01T05:55:34;11.20;99.90
17200;DHT22;8716;52.268;20.968;2023-04-01T05:58:03;11.30;99.90
17200;DHT22;8716;52.268;20.968;2023-04-01T06:00:32;11.30;99.90
17200;DHT22;8716;52.268;20.968;2023-04-01T06:03:02;11.40;99.90
17200;DHT22;8716;52.268;20.968;2023-04-01T06:05:38;11.50;99.90
17200;DHT22;8716;52.268;20.968;2023-04-01T06:08:11;11.50;99.90
17200;DHT22;8716;52.268;20.968;2023-04-01T06:10:51;11.70;99.90
17200;DHT22;8716;52.268;20.968;2023-04-01T06:13:30;11.90;99.90
17200;DHT22;8716;52.268;20.968;2023-04-01T06:16:08;12.10;99.90
17200;DHT22;8716;52.268;20.968;2023-04-01T06:18:53;12.20;99.90
17200;DHT22;8716;52.268;20.968;2023-04-01T06:21:59;12.30;99.90
17200;DHT22;8716;52.268;20.968;2023-04-01T06:24:42;12.30;99.90
17200;DHT22;8716;52.268;20.968;2023-04-01T06:27:26;12.30;99.90
17200;DHT22;8716;52.268;20.968;2023-04-01T06:30:07;12.30;99.90
17200;DHT22;8716;52.268;20.968;2023-04-01T06:32:54;12.20;99.90
17200;DHT22;8716;52.268;20.968;2023-04-01T06:35:45;12.30;99.90
17200;DHT22;8716;52.268;20.968;2023-04-01T06:38:35;12.40;99.90
17200;DHT22;8716;52.268;20.968;2023-04-01T06:41:25;12.40;99.90
17200;DHT22;8716;52.268;20.968;2023-04-01T06:44:04;12.40;99.90
17200;DHT22;8716;52.268;20.968;2023-04-01T06:46:58;12.40;99.90
17200;DHT22;8716;52.268;20.968;2023-04-01T06:49:52;12.40;99.90
17200;DHT22;8716;52.268;20.968;2023-04-01T06:52:50;12.50;99.90
17200;DHT22;8716;52.268;20.968;2023-04-01T06:55:42;12.70;99.90
17200;DHT22;8716;52.268;20.968;2023-04-01T06:58:34;13.00;99.90
17200;DHT22;8716;52.268;20.968;2023-04-01T07:01:06;13.10;99.90
17200;DHT22;8716;52.268;20.968;2023-04-01T07:03:41;13.30;99.90
17200;DHT22;8716;52.268;20.968;2023-04-01T07:06:16;13.40;99.90
17200;DHT22;8716;52.268;20.968;2023-04-01T07:08:56;13.50;99.90
17200;DHT22;8716;52.268;20.968;2023-04-01T07:11:54;13.60;99.90
17200;DHT22;8716;52.268;20.968;2023-04-01T07:14:44;13.80;99.90
17200;DHT22;8716;52.268;20.968;2023-04-01T07:17:17;14.00;99.90
17200;DHT22;8716;52.268;20.968;2023-04-01T07:19:48;14.20;99.90
17200;DHT22;8716;52.268;20.968;2023-04-01T07:22:27;14.30;99.90
17200;DHT22;8716;52.268;20.968;2023-04-01T07:25:14;14.40;99.90
17200;DHT22;8716;52.268;20.968;2023-04-01T07:27:53;14.40;99.90
17200;DHT22;8716;52.268;20.968;2023-04-01T07:30:26;14.40;99.90
17200;DHT22;8716;52.268;20.968;2023-04-01T07:33:01;14.50;99.90
17200;DHT22;8716;52.268;20.968;2023-04-01T07:35:36;14.60;99.90
17200;DHT22;8716;52.268;20.968;2023-04-01T07:38:14;14.70;99.90
17200;DHT22;8716;52.268;20.968;2023-04-01T07:40:51;14.60;99.90
17200;DHT22;8716;52.268;20.968;2023-04-01T07:43:41;14.50;99.90
17200;DHT22;8716;52.268;20.968;2023-04-01T07:46:33;14.30;99.90
17200;DHT22;8716;52.268;20.968;2023-04-01T07:49:09;14.10;99.90
17200;DHT22;8716;52.268;20.968;2023-04-01T07:51:47;14.00;99.90
17200;DHT22;8716;52.268;20.968;2023-04-01T07:54:23;14.00;99.90
17200;DHT22;8716;52.268;20.968;2023-04-01T07:57:00;14.00;99.90
17200;DHT22;8716;52.268;20.968;2023-04-01T07:59:50;14.10;99.90
17200;DHT22;8716;52.268;20.968;2023-04-01T08:02:36;14.10;99.90
17200;DHT22;8716;52.268;20.968;2023-04-01T08:05:17;14.40;99.90
17200;DHT22;8716;52.268;20.968;2023-04-01T08:07:53;14.40;99.90
17200;DHT22;8716;52.268;20.968;2023-04-01T08:10:47;14.50;99.90
17200;DHT22;8716;52.268;20.968;2023-04-01T08:13:43;14.60;99.90
17200;DHT22;8716;52.268;20.968;2023-04-01T08:16:39;14.60;99.90
17200;DHT22;8716;52.268;20.968;2023-04-01T08:19:22;14.60;99.90
17200;DHT22;8716;52.268;20.968;2023-04-01T08:21:58;14.70;99.90
17200;DHT22;8716;52.268;20.968;2023-04-01T08:24:36;14.60;99.90
17200;DHT22;8716;52.268;20.968;2023-04-01T08:27:24;14.50;99.90
17200;DHT22;8716;52.268;20.968;2023-04-01T08:29:59;14.40;99.90
17200;DHT22;8716;52.268;20.968;2023-04-01T08:32:35;14.30;99.90
17200;DHT22;8716;52.268;20.968;2023-04-01T08:35:16;14.30;99.90
17200;DHT22;8716;52.268;20.968;2023-04-01T08:37:47;14.70;99.90
17200;DHT22;8716;52.268;20.968;2023-04-01T08:40:41;15.00;99.90
17200;DHT22;8716;52.268;20.968;2023-04-01T08:43:22;15.20;99.90
17200;DHT22;8716;52.268;20.968;2023-04-01T08:46:06;15.50;99.90
17200;DHT22;8716;52.268;20.968;2023-04-01T08:48:59;15.80;99.90
17200;DHT22;8716;52.268;20.968;2023-04-01T08:51:56;16.00;99.90
17200;DHT22;8716;52.268;20.968;2023-04-01T08:54:42;16.00;99.90
17200;DHT22;8716;52.268;20.968;2023-04-01T08:57:24;16.10;99.90
17200;DHT22;8716;52.268;20.968;2023-04-01T09:00:25;16.00;99.90
17200;DHT22;8716;52.268;20.968;2023-04-01T09:03:41;16.00;99.90
17200;DHT22;8716;52.268;20.968;2023-04-01T09:06:32;15.80;99.90
17200;DHT22;8716;52.268;20.968;2023-04-01T09:09:24;15.70;99.90
17200;DHT22;8716;52.268;20.968;2023-04-01T09:18:12;15.10;99.90
17200;DHT22;8716;52.268;20.968;2023-04-01T09:21:02;14.80;99.90
17200;DHT22;8716;52.268;20.968;2023-04-01T09:23:57;14.70;99.90
17200;DHT22;8716;52.268;20.968;2023-04-01T09:26:56;14.50;99.90
17200;DHT22;8716;52.268;20.968;2023-04-01T09:32:46;14.00;99.90
17200;DHT22;8716;52.268;20.968;2023-04-01T09:35:30;14.00;99.90
17200;DHT22;8716;52.268;20.968;2023-04-01T09:38:21;13.90;99.90
17200;DHT22;8716;52.268;20.968;2023-04-01T09:40:55;13.90;99.90
17200;DHT22;8716;52.268;20.968;2023-04-01T09:43:54;13.80;99.90
17200;DHT22;8716;52.268;20.968;2023-04-01T09:46:36;13.90;99.90
17200;DHT22;8716;52.268;20.968;2023-04-01T09:49:34;13.90;99.90
17200;DHT22;8716;52.268;20.968;2023-04-01T09:52:17;13.90;99.90
17200;DHT22;8716;52.268;20.968;2023-04-01T09:54:59;14.10;99.90
17200;DHT22;8716;52.268;20.968;2023-04-01T09:58:09;14.20;99.90
17200;DHT22;8716;52.268;20.968;2023-04-01T10:04:59;14.50;99.90
17200;DHT22;8716;52.268;20.968;2023-04-01T10:08:02;14.60;99.90
17200;DHT22;8716;52.268;20.968;2023-04-01T10:10:51;14.70;99.90
17200;DHT22;8716;52.268;20.968;2023-04-01T10:16:57;14.50;99.90
17200;DHT22;8716;52.268;20.968;2023-04-01T10:26:31;14.30;99.90
17200;DHT22;8716;52.268;20.968;2023-04-01T10:29:37;14.30;99.90
17200;DHT22;8716;52.268;20.968;2023-04-01T10:32:40;14.40;99.90
17200;DHT22;8716;52.268;20.968;2023-04-01T10:35:43;14.70;99.90
17200;DHT22;8716;52.268;20.968;2023-04-01T10:38:41;15.30;99.90
17200;DHT22;8716;52.268;20.968;2023-04-01T10:41:52;15.70;99.90
17200;DHT22;8716;52.268;20.968;2023-04-01T10:48:09;16.20;99.90
17200;DHT22;8716;52.268;20.968;2023-04-01T10:51:15;16.30;99.90
17200;DHT22;8716;52.268;20.968;2023-04-01T10:57:40;16.30;99.90
17200;DHT22;8716;52.268;20.968;2023-04-01T11:01:05;16.30;99.90
17200;DHT22;8716;52.268;20.968;2023-04-01T11:23:39;15.40;99.90
17200;DHT22;8716;52.268;20.968;2023-04-01T11:26:33;15.50;99.90
17200;DHT22;8716;52.268;20.968;2023-04-01T11:29:59;15.60;99.90
17200;DHT22;8716;52.268;20.968;2023-04-01T11:32:42;15.70;99.90
17200;DHT22;8716;52.268;20.968;2023-04-01T11:38:31;15.60;99.90
17200;DHT22;8716;52.268;20.968;2023-04-01T11:41:27;15.50;99.90
17200;DHT22;8716;52.268;20.968;2023-04-01T11:44:24;15.20;99.90
17200;DHT22;8716;52.268;20.968;2023-04-01T11:47:21;15.10;99.90
17200;DHT22;8716;52.268;20.968;2023-04-01T11:50:03;15.20;99.90
17200;DHT22;8716;52.268;20.968;2023-04-01T11:53:00;15.20;99.90
17200;DHT22;8716;52.268;20.968;2023-04-01T11:55:42;15.20;99.90
17200;DHT22;8716;52.268;20.968;2023-04-01T11:58:35;15.30;99.90
17200;DHT22;8716;52.268;20.968;2023-04-01T12:01:19;15.40;99.90
17200;DHT22;8716;52.268;20.968;2023-04-01T12:04:32;15.40;99.90
17200;DHT22;8716;52.268;20.968;2023-04-01T12:07:15;15.50;99.90
17200;DHT22;8716;52.268;20.968;2023-04-01T12:09:52;15.70;99.90
17200;DHT22;8716;52.268;20.968;2023-04-01T12:12:30;15.90;99.90
17200;DHT22;8716;52.268;20.968;2023-04-01T12:15:19;16.00;99.90
17200;DHT22;8716;52.268;20.968;2023-04-01T12:17:53;16.20;99.90
17200;DHT22;8716;52.268;20.968;2023-04-01T12:20:36;16.40;99.90
17200;DHT22;8716;52.268;20.968;2023-04-01T12:23:20;16.60;99.90
17200;DHT22;8716;52.268;20.968;2023-04-01T12:26:03;16.60;99.90
17200;DHT22;8716;52.268;20.968;2023-04-01T12:28:44;16.70;99.90
17200;DHT22;8716;52.268;20.968;2023-04-01T12:31:25;16.80;99.90
17200;DHT22;8716;52.268;20.968;2023-04-01T12:34:20;17.00;99.90
17200;DHT22;8716;52.268;20.968;2023-04-01T12:37:03;16.90;99.90
17200;DHT22;8716;52.268;20.968;2023-04-01T12:39:58;16.90;99.90
17200;DHT22;8716;52.268;20.968;2023-04-01T12:42:41;16.70;99.90
17200;DHT22;8716;52.268;20.968;2023-04-01T12:45:28;16.70;99.90
17200;DHT22;8716;52.268;20.968;2023-04-01T12:48:31;16.70;99.90
17200;DHT22;8716;52.268;20.968;2023-04-01T13:00:49;16.60;99.90
17200;DHT22;8716;52.268;20.968;2023-04-01T13:03:40;16.60;99.90
17200;DHT22;8716;52.268;20.968;2023-04-01T13:06:23;16.60;99.90
17200;DHT22;8716;52.268;20.968;2023-04-01T13:09:02;16.50;99.90
17200;DHT22;8716;52.268;20.968;2023-04-01T13:11:50;16.40;99.90
17200;DHT22;8716;52.268;20.968;2023-04-01T13:14:30;16.20;99.90
17200;DHT22;8716;52.268;20.968;2023-04-01T13:17:09;16.00;99.90
17200;DHT22;8716;52.268;20.968;2023-04-01T13:19:44;15.70;99.90
17200;DHT22;8716;52.268;20.968;2023-04-01T13:22:39;15.40;99.90
17200;DHT22;8716;52.268;20.968;2023-04-01T13:25:16;15.10;99.90
17200;DHT22;8716;52.268;20.968;2023-04-01T13:27:53;14.80;99.90
17200;DHT22;8716;52.268;20.968;2023-04-01T13:30:26;14.50;99.90
17200;DHT22;8716;52.268;20.968;2023-04-01T13:33:01;14.30;99.90
17200;DHT22;8716;52.268;20.968;2023-04-01T13:35:39;14.10;99.90
17200;DHT22;8716;52.268;20.968;2023-04-01T13:38:32;14.00;99.90
17200;DHT22;8716;52.268;20.968;2023-04-01T13:41:11;13.90;99.90
17200;DHT22;8716;52.268;20.968;2023-04-01T13:43:47;13.90;99.90
17200;DHT22;8716;52.268;20.968;2023-04-01T13:46:33;13.80;99.90
17200;DHT22;8716;52.268;20.968;2023-04-01T13:49:34;13.70;99.90
17200;DHT22;8716;52.268;20.968;2023-04-01T13:55:34;13.70;99.90
17200;DHT22;8716;52.268;20.968;2023-04-01T13:58:23;13.70;99.90
17200;DHT22;8716;52.268;20.968;2023-04-01T14:01:06;13.60;99.90
17200;DHT22;8716;52.268;20.968;2023-04-01T14:03:54;13.50;99.90
17200;DHT22;8716;52.268;20.968;2023-04-01T14:06:31;13.40;99.90
17200;DHT22;8716;52.268;20.968;2023-04-01T14:09:15;13.40;99.90
17200;DHT22;8716;52.268;20.968;2023-04-01T14:11:53;13.30;99.90
17200;DHT22;8716;52.268;20.968;2023-04-01T14:14:36;13.20;99.90
17200;DHT22;8716;52.268;20.968;2023-04-01T14:17:26;13.20;99.90
17200;DHT22;8716;52.268;20.968;2023-04-01T14:20:25;13.20;99.90
17200;DHT22;8716;52.268;20.968;2023-04-01T14:23:16;13.20;99.90
17200;DHT22;8716;52.268;20.968;2023-04-01T14:26:00;13.10;99.90
17200;DHT22;8716;52.268;20.968;2023-04-01T14:28:36;13.10;99.90
17200;DHT22;8716;52.268;20.968;2023-04-01T14:31:21;13.00;99.90
17200;DHT22;8716;52.268;20.968;2023-04-01T14:34:00;13.00;99.90
17200;DHT22;8716;52.268;20.968;2023-04-01T14:36:49;12.90;99.90
17200;DHT22;8716;52.268;20.968;2023-04-01T14:39:29;12.80;99.90
17200;DHT22;8716;52.268;20.968;2023-04-01T14:42:19;12.80;99.90
17200;DHT22;8716;52.268;20.968;2023-04-01T14:45:18;12.80;99.90
17200;DHT22;8716;52.268;20.968;2023-04-01T14:47:50;12.70;99.90
17200;DHT22;8716;52.268;20.968;2023-04-01T14:50:24;12.60;99.90
17200;DHT22;8716;52.268;20.968;2023-04-01T14:53:11;12.60;99.90
17200;DHT22;8716;52.268;20.968;2023-04-01T14:55:49;12.50;99.90
17200;DHT22;8716;52.268;20.968;2023-04-01T14:58:19;12.50;99.90
17200;DHT22;8716;52.268;20.968;2023-04-01T15:00:58;12.40;99.90
17200;DHT22;8716;52.268;20.968;2023-04-01T15:03:30;12.40;99.90
17200;DHT22;8716;52.268;20.968;2023-04-01T15:09:17;12.30;99.90
17200;DHT22;8716;52.268;20.968;2023-04-01T15:12:01;12.20;99.90
17200;DHT22;8716;52.268;20.968;2023-04-01T15:14:46;12.20;99.90
17200;DHT22;8716;52.268;20.968;2023-04-01T15:17:37;12.10;99.90
17200;DHT22;8716;52.268;20.968;2023-04-01T15:20:25;12.10;99.90
17200;DHT22;8716;52.268;20.968;2023-04-01T15:23:11;12.00;99.90
17200;DHT22;8716;52.268;20.968;2023-04-01T15:25:57;12.00;99.90
17200;DHT22;8716;52.268;20.968;2023-04-01T15:28:36;11.90;99.90
17200;DHT22;8716;52.268;20.968;2023-04-01T15:31:14;11.90;99.90
17200;DHT22;8716;52.268;20.968;2023-04-01T15:33:54;11.90;99.90
17200;DHT22;8716;52.268;20.968;2023-04-01T15:36:37;11.80;99.90
17200;DHT22;8716;52.268;20.968;2023-04-01T15:39:14;11.70;99.90
17200;DHT22;8716;52.268;20.968;2023-04-01T15:41:53;11.70;99.90
17200;DHT22;8716;52.268;20.968;2023-04-01T15:44:42;11.70;99.90
17200;DHT22;8716;52.268;20.968;2023-04-01T15:47:32;11.60;99.90
17200;DHT22;8716;52.268;20.968;2023-04-01T15:50:26;11.60;99.90
17200;DHT22;8716;52.268;20.968;2023-04-01T15:53:07;11.50;99.90
17200;DHT22;8716;52.268;20.968;2023-04-01T15:55:44;11.60;99.90
17200;DHT22;8716;52.268;20.968;2023-04-01T15:58:37;11.50;99.90
17200;DHT22;8716;52.268;20.968;2023-04-01T16:01:22;11.50;99.90
17200;DHT22;8716;52.268;20.968;2023-04-01T16:03:57;11.50;99.90
17200;DHT22;8716;52.268;20.968;2023-04-01T16:06:45;11.50;99.90
17200;DHT22;8716;52.268;20.968;2023-04-01T16:09:27;11.50;99.90
17200;DHT22;8716;52.268;20.968;2023-04-01T16:12:06;11.40;99.90
17200;DHT22;8716;52.268;20.968;2023-04-01T16:14:42;11.40;99.90
17200;DHT22;8716;52.268;20.968;2023-04-01T16:17:24;11.40;99.90
17200;DHT22;8716;52.268;20.968;2023-04-01T16:19:57;11.40;99.90
17200;DHT22;8716;52.268;20.968;2023-04-01T16:22:32;11.40;99.90
17200;DHT22;8716;52.268;20.968;2023-04-01T16:25:19;11.40;99.90
17200;DHT22;8716;52.268;20.968;2023-04-01T16:27:56;11.40;99.90
17200;DHT22;8716;52.268;20.968;2023-04-01T16:30:34;11.30;99.90
17200;DHT22;8716;52.268;20.968;2023-04-01T16:33:07;11.30;99.90
17200;DHT22;8716;52.268;20.968;2023-04-01T16:35:46;11.30;99.90
17200;DHT22;8716;52.268;20.968;2023-04-01T16:38:21;11.30;99.90
17200;DHT22;8716;52.268;20.968;2023-04-01T16:41:05;11.20;99.90
17200;DHT22;8716;52.268;20.968;2023-04-01T16:43:41;11.30;99.90
17200;DHT22;8716;52.268;20.968;2023-04-01T16:46:26;11.20;99.90
17200;DHT22;8716;52.268;20.968;2023-04-01T16:49:03;11.20;99.90
17200;DHT22;8716;52.268;20.968;2023-04-01T16:51:42;11.10;99.90
17200;DHT22;8716;52.268;20.968;2023-04-01T16:54:17;11.10;99.90
17200;DHT22;8716;52.268;20.968;2023-04-01T16:56:50;11.10;99.90
17200;DHT22;8716;52.268;20.968;2023-04-01T16:59:24;11.10;99.90
17200;DHT22;8716;52.268;20.968;2023-04-01T17:02:02;11.10;99.90
17200;DHT22;8716;52.268;20.968;2023-04-01T17:04:36;11.10;99.90
17200;DHT22;8716;52.268;20.968;2023-04-01T17:07:20;11.10;99.90
17200;DHT22;8716;52.268;20.968;2023-04-01T17:10:22;11.10;99.90
17200;DHT22;8716;52.268;20.968;2023-04-01T17:13:03;11.00;99.90
17200;DHT22;8716;52.268;20.968;2023-04-01T17:15:39;11.00;99.90
17200;DHT22;8716;52.268;20.968;2023-04-01T17:18:15;11.00;99.90
17200;DHT22;8716;52.268;20.968;2023-04-01T17:20:53;11.00;99.90
17200;DHT22;8716;52.268;20.968;2023-04-01T17:23:27;11.00;99.90
17200;DHT22;8716;52.268;20.968;2023-04-01T17:26:06;11.00;99.90
17200;DHT22;8716;52.268;20.968;2023-04-01T17:28:47;11.00;99.90
17200;DHT22;8716;52.268;20.968;2023-04-01T17:31:32;10.90;99.90
17200;DHT22;8716;52.268;20.968;2023-04-01T17:34:16;10.80;99.90
17200;DHT22;8716;52.268;20.968;2023-04-01T17:36:57;10.80;99.90
17200;DHT22;8716;52.268;20.968;2023-04-01T17:39:57;10.80;99.90
17200;DHT22;8716;52.268;20.968;2023-04-01T17:42:36;10.80;99.90
17200;DHT22;8716;52.268;20.968;2023-04-01T17:45:11;10.70;99.90
17200;DHT22;8716;52.268;20.968;2023-04-01T17:47:52;10.70;99.90
17200;DHT22;8716;52.268;20.968;2023-04-01T17:50:35;10.70;99.90
17200;DHT22;8716;52.268;20.968;2023-04-01T17:53:22;10.70;99.90
17200;DHT22;8716;52.268;20.968;2023-04-01T17:56:08;10.70;99.90
17200;DHT22;8716;52.268;20.968;2023-04-01T17:58:45;10.70;99.90
17200;DHT22;8716;52.268;20.968;2023-04-01T18:01:24;10.60;99.90